createdAt,value
2023-02-12T00:00:19.637Z,13
2023-02-12T00:01:27.522Z,15
2023-02-12T00:02:37.868Z,14
2023-02-12T00:03:44.838Z,14
2023-02-12T00:04:51.674Z,13
2023-02-12T00:05:58.777Z,14
2023-02-12T00:07:08.211Z,14
2023-02-12T00:08:16.494Z,16
2023-02-12T00:09:23.352Z,16
2023-02-12T00:10:30.266Z,15
2023-02-12T00:11:38.282Z,16
2023-02-12T00:12:45.906Z,16
2023-02-12T00:13:52.774Z,17
2023-02-12T00:14:59.640Z,16
2023-02-12T00:16:07.422Z,16
2023-02-12T00:17:14.218Z,14
2023-02-12T00:18:21.203Z,16
2023-02-12T00:19:29.135Z,15
2023-02-12T00:20:35.978Z,15
2023-02-12T00:21:43.962Z,16
2023-02-12T00:22:50.839Z,17
2023-02-12T00:23:57.684Z,16
2023-02-12T00:25:04.545Z,16
2023-02-12T00:26:11.665Z,16
2023-02-12T00:27:19.298Z,16
2023-02-12T00:28:27.165Z,15
2023-02-12T00:29:34.986Z,15
2023-02-12T00:30:41.841Z,15
2023-02-12T00:31:48.782Z,15
2023-02-12T00:32:55.590Z,15
2023-02-12T00:34:05.400Z,15
2023-02-12T00:35:13.657Z,16
2023-02-12T00:36:20.678Z,15
2023-02-12T00:37:27.671Z,13
2023-02-12T00:38:35.559Z,13
2023-02-12T00:39:42.430Z,14
2023-02-12T00:40:51.985Z,14
2023-02-12T00:41:58.858Z,12
2023-02-12T00:43:05.702Z,12
2023-02-12T00:44:14.408Z,13
2023-02-12T00:45:22.251Z,12
2023-02-12T00:46:31.428Z,13
2023-02-12T00:47:39.145Z,12
2023-02-12T00:48:47.138Z,14
2023-02-12T00:49:54.766Z,13
2023-02-12T00:51:02.505Z,12
2023-02-12T00:52:10.490Z,13
2023-02-12T00:53:17.326Z,13
2023-02-12T00:54:26.017Z,14
2023-02-12T00:55:32.953Z,13
2023-02-12T00:56:41.725Z,14
2023-02-12T00:57:48.741Z,14
2023-02-12T00:58:55.681Z,14
2023-02-12T01:00:02.530Z,14
2023-02-12T01:01:09.735Z,15
2023-02-12T01:02:17.470Z,15
2023-02-12T01:03:25.434Z,14
2023-02-12T01:04:33.339Z,16
2023-02-12T01:05:40.318Z,16
2023-02-12T01:06:47.856Z,15
2023-02-12T01:07:55.742Z,15
2023-02-12T01:09:04.484Z,16
2023-02-12T01:10:12.287Z,16
2023-02-12T01:11:19.258Z,15
2023-02-12T01:12:26.242Z,16
2023-02-12T01:13:33.037Z,15
2023-02-12T01:14:40.766Z,14
2023-02-12T01:15:47.807Z,13
2023-02-12T01:16:54.490Z,13
2023-02-12T01:18:02.234Z,13
2023-02-12T01:19:10.181Z,12
2023-02-12T01:20:17.419Z,13
2023-02-12T01:21:25.800Z,13
2023-02-12T01:22:32.668Z,12
2023-02-12T01:23:39.858Z,12
2023-02-12T01:24:47.760Z,12
2023-02-12T01:25:55.109Z,12
2023-02-12T01:27:02.795Z,12
2023-02-12T01:28:10.945Z,11
2023-02-12T01:29:17.792Z,11
2023-02-12T01:30:25.603Z,11
2023-02-12T01:31:32.861Z,11
2023-02-12T01:32:39.477Z,12
2023-02-12T01:33:46.339Z,11
2023-02-12T01:34:55.456Z,10
2023-02-12T01:36:03.535Z,12
2023-02-12T01:37:10.695Z,12
2023-02-12T01:38:19.297Z,12
2023-02-12T01:39:27.199Z,11
2023-02-12T01:40:37.913Z,12
2023-02-12T01:41:44.757Z,11
2023-02-12T01:42:51.590Z,12
2023-02-12T01:44:00.182Z,11
2023-02-12T01:45:17.352Z,11
2023-02-12T01:46:32.380Z,10
2023-02-12T01:47:39.693Z,11
2023-02-12T01:48:47.577Z,10
2023-02-12T01:49:54.814Z,11
2023-02-12T01:51:05.047Z,12
2023-02-12T01:52:11.933Z,12
2023-02-12T01:53:24.018Z,11
2023-02-12T01:54:31.981Z,11
2023-02-12T01:55:39.788Z,12
2023-02-12T01:56:46.642Z,12
2023-02-12T01:57:54.318Z,12
2023-02-12T01:59:02.081Z,13
2023-02-12T02:00:11.021Z,13
2023-02-12T02:01:21.561Z,13
2023-02-12T02:02:28.433Z,13
2023-02-12T02:03:35.454Z,14
2023-02-12T02:04:42.966Z,14
2023-02-12T02:05:51.575Z,13
2023-02-12T02:07:01.427Z,14
2023-02-12T02:08:08.392Z,14
2023-02-12T02:09:16.623Z,13
2023-02-12T02:10:23.480Z,13
2023-02-12T02:11:30.394Z,13
2023-02-12T02:12:42.403Z,13
2023-02-12T02:13:54.361Z,14
2023-02-12T02:15:07.298Z,13
2023-02-12T02:16:16.356Z,15
2023-02-12T02:17:23.188Z,15
2023-02-12T02:18:41.267Z,14
2023-02-12T02:20:00.427Z,15
2023-02-12T02:21:17.658Z,15
2023-02-12T02:22:33.464Z,15
2023-02-12T02:23:40.314Z,17
2023-02-12T02:24:53.466Z,17
2023-02-12T02:26:10.576Z,16
2023-02-12T02:27:17.553Z,16
2023-02-12T02:28:28.329Z,16
2023-02-12T02:29:45.481Z,16
2023-02-12T02:30:57.757Z,16
2023-02-12T02:32:10.910Z,14
2023-02-12T02:33:25.354Z,15
2023-02-12T02:34:40.390Z,15
2023-02-12T02:35:56.592Z,14
2023-02-12T02:37:15.162Z,15
2023-02-12T02:38:23.985Z,14
2023-02-12T02:39:33.649Z,16
2023-02-12T02:40:41.620Z,15
2023-02-12T02:41:56.469Z,16
2023-02-12T02:43:03.307Z,15
2023-02-12T02:44:15.301Z,16
2023-02-12T02:45:25.129Z,16
2023-02-12T02:46:35.061Z,16
2023-02-12T02:47:47.871Z,17
2023-02-12T02:48:59.108Z,17
2023-02-12T02:50:08.953Z,17
2023-02-12T02:51:15.836Z,17
2023-02-12T02:52:25.605Z,19
2023-02-12T02:53:35.193Z,17
2023-02-12T02:54:53.330Z,19
2023-02-12T02:56:00.220Z,18
2023-02-12T02:57:07.214Z,18
2023-02-12T02:58:19.248Z,18
2023-02-12T02:59:29.080Z,20
2023-02-12T03:00:36.115Z,21
2023-02-12T03:01:45.086Z,18
2023-02-12T03:02:57.326Z,20
2023-02-12T03:04:06.922Z,20
2023-02-12T03:05:18.880Z,20
2023-02-12T03:06:27.354Z,22
2023-02-12T03:07:44.148Z,21
2023-02-12T03:08:53.070Z,22
2023-02-12T03:10:00.017Z,22
2023-02-12T03:11:10.896Z,23
2023-02-12T03:12:17.748Z,23
2023-02-12T03:13:24.582Z,22
2023-02-12T03:14:31.532Z,25
2023-02-12T03:15:39.228Z,27
2023-02-12T03:16:51.419Z,27
2023-02-12T03:18:04.940Z,31
2023-02-12T03:19:11.749Z,33
2023-02-12T03:20:20.057Z,35
2023-02-12T03:21:29.600Z,33
2023-02-12T03:22:46.709Z,36
2023-02-12T03:23:57.234Z,35
2023-02-12T03:25:04.079Z,33
2023-02-12T03:26:16.039Z,35
2023-02-12T03:27:24.787Z,32
2023-02-12T03:28:36.949Z,26
2023-02-12T03:29:43.620Z,28
2023-02-12T03:30:51.342Z,24
2023-02-12T03:32:06.024Z,26
2023-02-12T03:33:18.233Z,27
2023-02-12T03:34:26.088Z,26
2023-02-12T03:35:38.974Z,25
2023-02-12T03:36:47.826Z,23
2023-02-12T03:37:57.754Z,22
2023-02-12T03:39:06.447Z,20
2023-02-12T03:40:16.706Z,20
2023-02-12T03:41:23.755Z,18
2023-02-12T03:42:31.493Z,20
2023-02-12T03:43:48.629Z,20
2023-02-12T03:44:57.145Z,20
2023-02-12T03:46:15.321Z,20
2023-02-12T03:47:32.428Z,20
2023-02-12T03:48:48.430Z,20
2023-02-12T03:50:03.586Z,18
2023-02-12T03:51:18.311Z,17
2023-02-12T03:52:33.054Z,19
2023-02-12T03:53:39.904Z,18
2023-02-12T03:54:47.743Z,18
2023-02-12T03:55:54.883Z,20
2023-02-12T03:57:09.452Z,19
2023-02-12T03:58:21.630Z,18
2023-02-12T03:59:28.639Z,18
2023-02-12T04:00:35.441Z,17
2023-02-12T04:01:43.160Z,18
2023-02-12T04:02:49.876Z,16
2023-02-12T04:03:57.956Z,17
2023-02-12T04:05:07.600Z,17
2023-02-12T04:06:19.555Z,18
2023-02-12T04:07:26.463Z,17
2023-02-12T04:08:34.341Z,14
2023-02-12T04:09:41.252Z,16
2023-02-12T04:10:49.094Z,16
2023-02-12T04:11:56.871Z,15
2023-02-12T04:13:08.859Z,16
2023-02-12T04:14:23.764Z,16
2023-02-12T04:15:36.921Z,16
2023-02-12T04:16:47.748Z,14
2023-02-12T04:17:58.197Z,16
2023-02-12T04:19:09.299Z,15
2023-02-12T04:20:16.131Z,15
2023-02-12T04:21:31.988Z,15
2023-02-12T04:22:46.657Z,16
2023-02-12T04:24:03.822Z,13
2023-02-12T04:25:21.224Z,14
2023-02-12T04:26:33.337Z,15
2023-02-12T04:27:40.522Z,14
2023-02-12T04:28:55.611Z,15
2023-02-12T04:30:12.751Z,14
2023-02-12T04:31:25.971Z,14
2023-02-12T04:32:36.432Z,14
2023-02-12T04:33:51.106Z,13
2023-02-12T04:35:04.014Z,13
2023-02-12T04:36:17.092Z,12
2023-02-12T04:37:24.038Z,11
2023-02-12T04:38:39.349Z,11
2023-02-12T04:39:47.338Z,12
2023-02-12T04:40:55.184Z,12
2023-02-12T04:42:02.203Z,11
2023-02-12T04:43:09.061Z,11
2023-02-12T04:44:16.673Z,11
2023-02-12T04:45:26.601Z,11
2023-02-12T04:46:33.521Z,11
2023-02-12T04:47:40.344Z,11
2023-02-12T04:48:49.240Z,11
2023-02-12T04:49:59.511Z,10
2023-02-12T04:51:06.379Z,12
2023-02-12T04:52:13.216Z,12
2023-02-12T04:53:21.509Z,11
2023-02-12T04:54:31.715Z,11
2023-02-12T04:55:38.661Z,11
2023-02-12T04:56:46.452Z,11
2023-02-12T04:57:53.435Z,11
2023-02-12T04:59:04.173Z,10
2023-02-12T05:00:11.167Z,12
2023-02-12T05:01:18.265Z,12
2023-02-12T05:02:26.962Z,11
2023-02-12T05:03:33.859Z,12
2023-02-12T05:04:40.640Z,11
2023-02-12T05:05:50.052Z,11
2023-02-12T05:06:56.901Z,12
2023-02-12T05:08:06.661Z,12
2023-02-12T05:09:13.648Z,12
2023-02-12T05:10:20.497Z,12
2023-02-12T05:11:27.298Z,12
2023-02-12T05:12:34.172Z,12
2023-02-12T05:13:41.042Z,12
2023-02-12T05:14:48.874Z,11
2023-02-12T05:15:55.967Z,11
2023-02-12T05:17:03.355Z,12
2023-02-12T05:18:10.153Z,11
2023-02-12T05:19:17.022Z,11
2023-02-12T05:20:25.593Z,12
2023-02-12T05:21:33.537Z,11
2023-02-12T05:22:41.950Z,11
2023-02-12T05:23:49.897Z,11
2023-02-12T05:24:57.676Z,11
2023-02-12T05:26:04.488Z,12
2023-02-12T05:27:11.516Z,11
2023-02-12T05:28:19.460Z,11
2023-02-12T05:29:26.368Z,13
2023-02-12T05:30:34.631Z,12
2023-02-12T05:31:41.653Z,12
2023-02-12T05:32:48.482Z,12
2023-02-12T05:33:56.768Z,13
2023-02-12T05:35:03.743Z,13
2023-02-12T05:36:13.902Z,13
2023-02-12T05:37:23.911Z,13
2023-02-12T05:38:31.837Z,14
2023-02-12T05:39:38.849Z,13
2023-02-12T05:40:45.704Z,13
2023-02-12T05:41:52.858Z,13
2023-02-12T05:42:59.938Z,13
2023-02-12T05:44:09.842Z,14
2023-02-12T05:45:16.705Z,14
2023-02-12T05:46:23.639Z,14
2023-02-12T05:47:33.395Z,14
2023-02-12T05:48:40.241Z,13
2023-02-12T05:49:48.685Z,14
2023-02-12T05:50:56.609Z,15
2023-02-12T05:52:09.492Z,14
2023-02-12T05:53:17.997Z,15
2023-02-12T05:54:24.583Z,15
2023-02-12T05:55:31.396Z,15
2023-02-12T05:56:38.400Z,14
2023-02-12T05:57:48.520Z,16
2023-02-12T05:58:57.124Z,16
2023-02-12T06:00:06.823Z,16
2023-02-12T06:01:13.928Z,16
2023-02-12T06:02:23.732Z,17
2023-02-12T06:03:32.656Z,17
2023-02-12T06:04:40.467Z,17
2023-02-12T06:05:47.330Z,18
2023-02-12T06:06:54.187Z,17
2023-02-12T06:08:01.130Z,18
2023-02-12T06:09:08.044Z,18
2023-02-12T06:10:15.838Z,18
2023-02-12T06:11:22.855Z,18
2023-02-12T06:12:30.706Z,18
2023-02-12T06:13:40.743Z,17
2023-02-12T06:14:47.734Z,16
2023-02-12T06:15:55.334Z,16
2023-02-12T06:17:01.712Z,15
2023-02-12T06:18:09.877Z,16
2023-02-12T06:19:17.634Z,17
2023-02-12T06:20:24.862Z,17
2023-02-12T06:21:31.815Z,16
2023-02-12T06:22:38.626Z,22
2023-02-12T06:23:45.921Z,27
2023-02-12T06:24:56.974Z,29
2023-02-12T06:26:03.879Z,26
2023-02-12T06:27:10.744Z,28
2023-02-12T06:28:17.673Z,25
2023-02-12T06:29:24.675Z,24
2023-02-12T06:30:31.604Z,21
2023-02-12T06:31:39.366Z,23
2023-02-12T06:32:46.083Z,20
2023-02-12T06:33:53.871Z,18
2023-02-12T06:35:02.340Z,19
2023-02-12T06:36:12.893Z,18
2023-02-12T06:37:19.826Z,17
2023-02-12T06:38:27.664Z,19
2023-02-12T06:39:34.683Z,20
2023-02-12T06:40:41.615Z,22
2023-02-12T06:41:53.823Z,21
2023-02-12T06:43:01.008Z,21
2023-02-12T06:44:08.735Z,21
2023-02-12T06:45:16.553Z,24
2023-02-12T06:46:23.570Z,26
2023-02-12T06:47:30.315Z,23
2023-02-12T06:48:37.278Z,31
2023-02-12T06:49:45.609Z,32
2023-02-12T06:50:52.493Z,33
2023-02-12T06:52:02.929Z,28
2023-02-12T06:53:07.083Z,26
2023-02-12T06:54:13.848Z,27
2023-02-12T06:55:21.693Z,25
2023-02-12T06:56:31.956Z,28
2023-02-12T06:57:40.482Z,26
2023-02-12T06:58:48.257Z,25
2023-02-12T06:59:58.853Z,21
2023-02-12T07:01:06.847Z,21
2023-02-12T07:02:18.728Z,16
2023-02-12T07:03:26.562Z,16
2023-02-12T07:04:35.248Z,15
2023-02-12T07:05:44.089Z,15
2023-02-12T07:06:50.948Z,14
2023-02-12T07:07:57.704Z,14
2023-02-12T07:09:07.250Z,15
2023-02-12T07:10:14.172Z,14
2023-02-12T07:11:23.060Z,16
2023-02-12T07:12:30.143Z,16
2023-02-12T07:13:37.059Z,17
2023-02-12T07:14:44.840Z,16
2023-02-12T07:15:51.844Z,16
2023-02-12T07:16:58.665Z,15
2023-02-12T07:18:05.440Z,16
2023-02-12T07:19:12.317Z,14
2023-02-12T07:20:19.086Z,15
2023-02-12T07:21:26.956Z,16
2023-02-12T07:22:37.262Z,16
2023-02-12T07:23:45.802Z,14
2023-02-12T07:24:52.851Z,13
2023-02-12T07:26:00.811Z,13
2023-02-12T07:27:08.013Z,13
2023-02-12T07:28:16.980Z,12
2023-02-12T07:29:24.068Z,13
2023-02-12T07:30:32.507Z,13
2023-02-12T07:31:40.828Z,15
2023-02-12T07:32:48.932Z,16
2023-02-12T07:33:58.804Z,16
2023-02-12T07:35:05.824Z,16
2023-02-12T07:36:13.013Z,15
2023-02-12T07:37:21.081Z,15
2023-02-12T07:38:28.992Z,14
2023-02-12T07:39:36.826Z,15
2023-02-12T07:40:50.383Z,15
2023-02-12T07:41:58.309Z,17
2023-02-12T07:43:07.005Z,16
2023-02-12T07:44:13.965Z,15
2023-02-12T07:45:20.777Z,16
2023-02-12T07:46:28.454Z,17
2023-02-12T07:47:35.345Z,17
2023-02-12T07:48:46.317Z,16
2023-02-12T07:49:53.795Z,16
2023-02-12T07:51:02.272Z,16
2023-02-12T07:52:10.971Z,17
2023-02-12T07:53:17.577Z,16
2023-02-12T07:54:24.396Z,17
2023-02-12T07:55:31.197Z,17
2023-02-12T07:56:39.845Z,18
2023-02-12T07:57:46.664Z,16
2023-02-12T07:58:53.508Z,17
2023-02-12T08:00:01.247Z,16
2023-02-12T08:01:08.457Z,14
2023-02-12T08:02:17.404Z,12
2023-02-12T08:03:24.137Z,14
2023-02-12T08:04:31.102Z,12
2023-02-12T08:05:37.969Z,12
2023-02-12T08:06:44.977Z,11
2023-02-12T08:07:51.803Z,12
2023-02-12T08:08:58.801Z,11
2023-02-12T08:10:05.649Z,11
2023-02-12T08:11:14.640Z,12
2023-02-12T08:12:21.566Z,13
2023-02-12T08:13:30.132Z,14
2023-02-12T08:14:37.073Z,15
2023-02-12T08:15:45.012Z,14
2023-02-12T08:16:52.020Z,15
2023-02-12T08:17:59.673Z,14
2023-02-12T08:19:16.834Z,15
2023-02-12T08:20:14.560Z,14
2023-02-12T08:21:21.571Z,13
2023-02-12T08:22:28.500Z,12
2023-02-12T08:23:35.513Z,14
2023-02-12T08:24:45.057Z,14
2023-02-12T08:25:51.925Z,13
2023-02-12T08:26:59.954Z,14
2023-02-12T08:28:08.843Z,13
2023-02-12T08:29:15.643Z,13
2023-02-12T08:30:22.494Z,11
2023-02-12T08:31:29.417Z,11
2023-02-12T08:32:36.302Z,11
2023-02-12T08:33:43.170Z,11
2023-02-12T08:34:50.102Z,12
2023-02-12T08:35:59.648Z,12
2023-02-12T08:37:09.809Z,14
2023-02-12T08:38:18.123Z,14
2023-02-12T08:39:26.934Z,13
2023-02-12T08:40:33.982Z,13
2023-02-12T08:41:42.777Z,13
2023-02-12T08:42:49.765Z,12
2023-02-12T08:43:58.098Z,12
2023-02-12T08:45:07.833Z,12
2023-02-12T08:46:16.046Z,12
2023-02-12T08:47:22.892Z,12
2023-02-12T08:48:32.020Z,13
2023-02-12T08:49:39.581Z,12
2023-02-12T08:50:46.445Z,11
2023-02-12T08:51:53.337Z,10
2023-02-12T08:53:00.180Z,9
2023-02-12T08:54:07.189Z,8
2023-02-12T08:55:14.236Z,8
2023-02-12T08:56:21.164Z,8
2023-02-12T08:57:28.161Z,8
2023-02-12T08:58:34.961Z,8
2023-02-12T08:59:41.823Z,8
2023-02-12T09:00:48.663Z,8
2023-02-12T09:01:55.867Z,9
2023-02-12T09:03:02.823Z,9
2023-02-12T09:04:09.738Z,8
2023-02-12T09:05:16.669Z,9
2023-02-12T09:06:23.731Z,9
2023-02-12T09:07:30.588Z,8
2023-02-12T09:08:37.498Z,7
2023-02-12T09:09:44.290Z,8
2023-02-12T09:10:51.220Z,9
2023-02-12T09:11:58.045Z,8
2023-02-12T09:13:04.933Z,7
2023-02-12T09:14:11.765Z,8
2023-02-12T09:15:18.688Z,8
2023-02-12T09:16:25.548Z,8
2023-02-12T09:17:32.305Z,9
2023-02-12T09:18:39.195Z,7
2023-02-12T09:19:46.081Z,9
2023-02-12T09:20:52.902Z,11
2023-02-12T09:21:59.773Z,9
2023-02-12T09:23:06.654Z,9
2023-02-12T09:24:13.637Z,10
2023-02-12T09:25:20.527Z,10
2023-02-12T09:26:27.608Z,10
2023-02-12T09:27:34.583Z,10
2023-02-12T09:28:41.558Z,10
2023-02-12T09:29:48.451Z,10
2023-02-12T09:30:55.389Z,10
2023-02-12T09:32:02.205Z,11
2023-02-12T09:33:09.136Z,12
2023-02-12T09:34:16.196Z,13
2023-02-12T09:35:23.065Z,14
2023-02-12T09:36:29.948Z,15
2023-02-12T09:37:36.851Z,13
2023-02-12T09:38:43.728Z,13
2023-02-12T09:39:51.285Z,12
2023-02-12T09:40:57.488Z,11
2023-02-12T09:42:14.523Z,11
2023-02-12T09:43:24.272Z,15
2023-02-12T09:44:33.825Z,12
2023-02-12T09:45:45.704Z,12
2023-02-12T09:47:00.233Z,12
2023-02-12T09:48:17.194Z,12
2023-02-12T09:49:30.075Z,11
2023-02-12T09:50:47.020Z,11
2023-02-12T09:51:56.747Z,12
2023-02-12T09:53:03.743Z,14
2023-02-12T09:54:10.597Z,14
2023-02-12T09:55:17.472Z,12
2023-02-12T09:56:24.299Z,12
2023-02-12T09:57:31.204Z,12
2023-02-12T09:58:38.210Z,12
2023-02-12T09:59:50.188Z,13
2023-02-12T10:01:02.128Z,13
2023-02-12T10:02:16.833Z,13
2023-02-12T10:03:28.673Z,13
2023-02-12T10:04:35.566Z,12
2023-02-12T10:05:44.566Z,10
2023-02-12T10:06:54.330Z,11
2023-02-12T10:08:01.409Z,11
2023-02-12T10:09:18.429Z,12
2023-02-12T10:10:32.886Z,11
2023-02-12T10:11:49.889Z,11
2023-02-12T10:12:56.801Z,11
2023-02-12T10:14:11.670Z,11
2023-02-12T10:15:23.557Z,11
2023-02-12T10:16:33.086Z,10
2023-02-12T10:17:44.287Z,11
2023-02-12T10:18:53.423Z,11
2023-02-12T10:20:06.206Z,10
2023-02-12T10:21:18.236Z,12
2023-02-12T10:22:30.939Z,11
2023-02-12T10:23:45.584Z,11
2023-02-12T10:24:57.527Z,11
2023-02-12T10:26:12.155Z,13
2023-02-12T10:27:24.180Z,12
2023-02-12T10:28:41.288Z,11
2023-02-12T10:29:52.342Z,11
2023-02-12T10:30:59.371Z,10
2023-02-12T10:32:06.232Z,9
2023-02-12T10:33:21.268Z,9
2023-02-12T10:34:34.191Z,9
2023-02-12T10:35:41.249Z,10
2023-02-12T10:36:55.702Z,11
2023-02-12T10:38:13.159Z,10
2023-02-12T10:39:23.201Z,10
2023-02-12T10:40:33.029Z,12
2023-02-12T10:41:43.328Z,12
2023-02-12T10:42:55.353Z,13
2023-02-12T10:44:08.677Z,11
2023-02-12T10:45:19.654Z,8
2023-02-12T10:46:32.046Z,8
2023-02-12T10:47:38.788Z,7
2023-02-12T10:48:45.676Z,7
2023-02-12T10:49:52.607Z,8
2023-02-12T10:51:04.526Z,9
2023-02-12T10:52:11.346Z,10
2023-02-12T10:53:28.335Z,9
2023-02-12T10:54:37.808Z,9
2023-02-12T10:55:47.760Z,9
2023-02-12T10:56:57.423Z,9
2023-02-12T10:58:09.583Z,9
2023-02-12T10:59:16.466Z,10
2023-02-12T11:00:26.010Z,9
2023-02-12T11:01:37.586Z,11
2023-02-12T11:02:44.519Z,10
2023-02-12T11:04:01.675Z,9
2023-02-12T11:05:18.829Z,10
2023-02-12T11:06:26.610Z,10
2023-02-12T11:07:33.449Z,11
2023-02-12T11:08:40.414Z,11
2023-02-12T11:09:47.189Z,13
2023-02-12T11:10:54.149Z,11
2023-02-12T11:12:10.902Z,10
2023-02-12T11:13:20.600Z,10
2023-02-12T11:14:30.424Z,9
2023-02-12T11:15:37.573Z,9
2023-02-12T11:16:49.515Z,10
2023-02-12T11:17:56.370Z,12
2023-02-12T11:19:06.130Z,11
2023-02-12T11:20:20.875Z,11
2023-02-12T11:21:28.849Z,10
2023-02-12T11:22:35.832Z,11
2023-02-12T11:23:42.765Z,10
2023-02-12T11:24:49.734Z,10
2023-02-12T11:25:56.983Z,10
2023-02-12T11:27:08.731Z,11
2023-02-12T11:28:16.416Z,11
2023-02-12T11:29:24.264Z,11
2023-02-12T11:30:31.118Z,10
2023-02-12T11:31:42.112Z,10
2023-02-12T11:32:48.863Z,11
2023-02-12T11:33:55.779Z,11
2023-02-12T11:35:15.530Z,13
2023-02-12T11:36:25.393Z,15
2023-02-12T11:37:32.637Z,14
2023-02-12T11:38:40.119Z,11
2023-02-12T11:39:54.712Z,19
2023-02-12T11:41:02.409Z,18
2023-02-12T11:42:14.340Z,16
2023-02-12T11:43:23.859Z,15
2023-02-12T11:44:30.944Z,13
2023-02-12T11:45:40.541Z,14
2023-02-12T11:46:53.651Z,13
2023-02-12T11:48:03.889Z,11
2023-02-12T11:49:25.590Z,12
2023-02-12T11:50:34.226Z,11
2023-02-12T11:51:41.218Z,11
2023-02-12T11:52:51.248Z,10
2023-02-12T11:54:01.277Z,11
2023-02-12T11:55:08.446Z,10
2023-02-12T11:56:25.546Z,10
2023-02-12T11:57:43.401Z,10
2023-02-12T11:58:50.351Z,11
2023-02-12T11:59:57.333Z,10
2023-02-12T12:01:04.277Z,11
2023-02-12T12:02:15.848Z,11
2023-02-12T12:03:27.258Z,11
2023-02-12T12:04:41.495Z,11
2023-02-12T12:05:48.469Z,11
2023-02-12T12:06:55.544Z,12
2023-02-12T12:08:08.696Z,11
2023-02-12T12:09:15.696Z,12
2023-02-12T12:10:27.734Z,12
2023-02-12T12:11:42.867Z,12
2023-02-12T12:12:54.991Z,11
2023-02-12T12:14:01.930Z,7
2023-02-12T12:15:14.007Z,7
2023-02-12T12:16:29.575Z,8
2023-02-12T12:17:41.585Z,9
2023-02-12T12:18:56.330Z,8
2023-02-12T12:20:13.410Z,9
2023-02-12T12:21:20.595Z,9
2023-02-12T12:22:38.603Z,7
2023-02-12T12:23:53.603Z,7
2023-02-12T12:25:06.420Z,18
2023-02-12T12:26:25.872Z,29
2023-02-12T12:27:32.855Z,68
2023-02-12T12:28:47.914Z,25
2023-02-12T12:29:59.865Z,17
2023-02-12T12:31:07.157Z,27
2023-02-12T12:32:16.626Z,42
2023-02-12T12:33:24.132Z,20
2023-02-12T12:34:39.072Z,15
2023-02-12T12:35:46.268Z,27
2023-02-12T12:37:00.891Z,18
2023-02-12T12:38:12.933Z,12
2023-02-12T12:39:22.904Z,36
2023-02-12T12:40:29.995Z,36
2023-02-12T12:41:42.552Z,17
2023-02-12T12:42:59.647Z,8
2023-02-12T12:44:06.604Z,8
2023-02-12T12:45:18.680Z,9
2023-02-12T12:46:34.336Z,9
2023-02-12T12:47:51.458Z,25
2023-02-12T12:49:06.180Z,19
2023-02-12T12:50:13.145Z,12
2023-02-12T12:51:27.768Z,19
2023-02-12T12:52:43.557Z,12
2023-02-12T12:53:58.501Z,10
2023-02-12T12:55:12.715Z,11
2023-02-12T12:56:25.649Z,9
2023-02-12T12:57:37.705Z,9
2023-02-12T12:58:49.688Z,10
2023-02-12T13:00:08.069Z,10
2023-02-12T13:01:20.835Z,9
2023-02-12T13:02:35.840Z,8
2023-02-12T13:03:55.841Z,6
2023-02-12T13:05:10.822Z,6
2023-02-12T13:06:27.902Z,7
2023-02-12T13:07:45.704Z,7
2023-02-12T13:08:57.730Z,7
2023-02-12T13:10:09.762Z,7
2023-02-12T13:11:28.169Z,8
2023-02-12T13:12:38.902Z,8
2023-02-12T13:13:45.953Z,10
2023-02-12T13:14:53.024Z,8
2023-02-12T13:16:04.984Z,8
2023-02-12T13:17:22.246Z,9
2023-02-12T13:18:30.175Z,8
2023-02-12T13:19:48.028Z,7
2023-02-12T13:21:03.221Z,7
2023-02-12T13:22:18.081Z,7
2023-02-12T13:23:25.063Z,8
2023-02-12T13:24:39.997Z,7
2023-02-12T13:25:47.800Z,8
2023-02-12T13:27:04.880Z,8
2023-02-12T13:28:17.925Z,7
2023-02-12T13:29:27.869Z,6
2023-02-12T13:30:39.887Z,7
2023-02-12T13:31:49.953Z,8
2023-02-12T13:32:59.492Z,6
2023-02-12T13:34:09.469Z,6
2023-02-12T13:35:16.433Z,7
2023-02-12T13:36:23.337Z,6
2023-02-12T13:37:30.653Z,6
2023-02-12T13:38:45.239Z,6
2023-02-12T13:39:59.864Z,6
2023-02-12T13:41:06.808Z,7
2023-02-12T13:42:13.904Z,6
2023-02-12T13:43:31.900Z,6
2023-02-12T13:44:49.096Z,7
2023-02-12T13:46:01.820Z,7
2023-02-12T13:47:11.591Z,6
2023-02-12T13:48:21.418Z,7
2023-02-12T13:49:33.420Z,7
2023-02-12T13:50:46.251Z,7
2023-02-12T13:52:00.990Z,7
2023-02-12T13:53:13.560Z,8
2023-02-12T13:54:26.003Z,8
2023-02-12T13:55:32.883Z,9
2023-02-12T13:56:42.909Z,7
2023-02-12T13:57:52.890Z,7
2023-02-12T13:59:09.932Z,7
2023-02-12T14:00:26.991Z,8
2023-02-12T14:01:46.851Z,8
2023-02-12T14:02:51.443Z,7
2023-02-12T14:03:58.846Z,7
2023-02-12T14:05:15.829Z,6
2023-02-12T14:06:27.871Z,7
2023-02-12T14:07:35.231Z,8
2023-02-12T14:08:45.014Z,9
2023-02-12T14:09:57.918Z,10
2023-02-12T14:11:04.948Z,10
2023-02-12T14:12:16.071Z,10
2023-02-12T14:13:28.409Z,10
2023-02-12T14:14:35.327Z,9
2023-02-12T14:15:42.332Z,9
2023-02-12T14:16:54.380Z,24
2023-02-12T14:18:03.916Z,21
2023-02-12T14:19:10.925Z,22
2023-02-12T14:20:29.123Z,30
2023-02-12T14:21:39.351Z,52
2023-02-12T14:22:46.332Z,56
2023-02-12T14:23:54.124Z,11
2023-02-12T14:25:03.918Z,9
2023-02-12T14:26:20.978Z,9
2023-02-12T14:27:27.878Z,8
2023-02-12T14:28:39.935Z,10
2023-02-12T14:29:54.926Z,11
2023-02-12T14:31:10.189Z,11
2023-02-12T14:32:22.130Z,15
2023-02-12T14:33:39.458Z,75
2023-02-12T14:34:46.800Z,52
2023-02-12T14:35:54.462Z,52
2023-02-12T14:37:06.100Z,52
2023-02-12T14:38:18.690Z,52
2023-02-12T14:39:31.552Z,59
2023-02-12T14:40:38.674Z,59
2023-02-12T14:41:48.366Z,59
2023-02-12T14:42:55.394Z,59
2023-02-12T14:44:02.494Z,12
2023-02-12T14:45:19.762Z,12
2023-02-12T14:46:31.864Z,12
2023-02-12T14:47:38.729Z,12
2023-02-12T14:48:48.188Z,12
2023-02-12T14:49:55.093Z,12
2023-02-12T14:51:07.847Z,12
2023-02-12T14:52:17.365Z,20
2023-02-12T14:53:34.393Z,20
2023-02-12T14:54:41.266Z,20
2023-02-12T14:55:56.724Z,12
2023-02-12T14:57:03.333Z,12
2023-02-12T14:58:10.407Z,5
2023-02-12T14:59:17.344Z,6
2023-02-12T15:00:24.332Z,6
2023-02-12T15:01:39.120Z,6
2023-02-12T15:02:45.950Z,6
2023-02-12T15:04:01.517Z,7
2023-02-12T15:05:08.461Z,7
2023-02-12T15:06:20.587Z,7
2023-02-12T15:07:31.046Z,13
2023-02-12T15:08:43.868Z,10
2023-02-12T15:09:55.801Z,10
2023-02-12T15:11:07.832Z,10
2023-02-12T15:12:20.124Z,10
2023-02-12T15:13:34.949Z,10
2023-02-12T15:14:46.824Z,10
2023-02-12T15:15:55.798Z,10
2023-02-12T15:17:12.773Z,10
2023-02-12T15:18:24.296Z,8
2023-02-12T15:19:32.389Z,11
2023-02-12T15:20:52.272Z,11
2023-02-12T15:22:01.334Z,12
2023-02-12T15:23:18.878Z,13
2023-02-12T15:24:33.349Z,13
2023-02-12T15:25:40.226Z,17
2023-02-12T15:26:47.194Z,17
2023-02-12T15:27:54.204Z,17
2023-02-12T15:29:09.236Z,17
2023-02-12T15:30:26.188Z,11
2023-02-12T15:31:31.014Z,12
2023-02-12T15:32:37.950Z,12
2023-02-12T15:33:44.930Z,12
2023-02-12T15:34:51.860Z,12
2023-02-12T15:35:59.129Z,12
2023-02-12T15:37:05.612Z,12
2023-02-12T15:38:12.483Z,12
2023-02-12T15:39:24.379Z,12
2023-02-12T15:40:32.117Z,12
2023-02-12T15:41:39.049Z,12
2023-02-12T15:42:46.040Z,18
2023-02-12T15:43:58.163Z,18
2023-02-12T15:45:10.076Z,18
2023-02-12T15:46:17.873Z,18
2023-02-12T15:47:24.761Z,18
2023-02-12T15:48:32.431Z,18
2023-02-12T15:49:39.335Z,18
2023-02-12T15:50:46.569Z,18
2023-02-12T15:51:59.008Z,18
2023-02-12T15:53:05.909Z,18
2023-02-12T15:54:13.079Z,18
2023-02-12T15:55:22.435Z,18
2023-02-12T15:56:29.527Z,18
2023-02-12T15:57:39.269Z,18
2023-02-12T15:58:46.298Z,19
2023-02-12T15:59:58.807Z,19
2023-02-12T16:01:09.603Z,19
2023-02-12T16:02:19.863Z,19
2023-02-12T16:03:29.836Z,19
2023-02-12T16:04:36.732Z,19
2023-02-12T16:05:43.512Z,19
2023-02-12T16:06:50.372Z,19
2023-02-12T16:08:00.018Z,19
2023-02-12T16:09:06.939Z,19
2023-02-12T16:10:19.378Z,19
2023-02-12T16:11:26.191Z,19
2023-02-12T16:12:34.420Z,19
2023-02-12T16:13:44.043Z,19
2023-02-12T16:14:54.597Z,19
2023-02-12T16:16:02.800Z,19
2023-02-12T16:17:10.021Z,19
2023-02-12T16:18:22.112Z,18
2023-02-12T16:19:31.204Z,18
2023-02-12T16:20:38.260Z,18
2023-02-12T16:21:45.492Z,18
2023-02-12T16:23:00.311Z,17
2023-02-12T16:24:07.286Z,17
2023-02-12T16:25:23.212Z,18
2023-02-12T16:26:33.581Z,18
2023-02-12T16:27:40.963Z,23
2023-02-12T16:28:53.024Z,23
2023-02-12T16:30:00.023Z,23
2023-02-12T16:31:07.381Z,23
2023-02-12T16:32:15.007Z,23
2023-02-12T16:33:29.928Z,23
2023-02-12T16:34:42.976Z,25
2023-02-12T16:35:50.849Z,25
2023-02-12T16:37:06.507Z,25